Time;durP1;ratioP1;P1;durP2;ratioP2;P2;SDS_P1;SDS_P2;PMS_P1;PMS_P2;Temp;Humidity;BMP_temperature;BMP_pressure;BME280_temperature;BME280_humidity;BME280_pressure;Samples;Min_cycle;Max_cycle;Signal;HPM_P1;HPM_P2
2022/08/27 00:02:13;;;;;;;3.03;1.52;;;17.90;98.90;;;;;;5064431;28;20029;-35
2022/08/27 00:04:40;;;;;;;2.05;1.50;;;17.90;98.90;;;;;;5064281;28;20038;-37
2022/08/27 00:07:06;;;;;;;3.88;1.80;;;17.90;98.90;;;;;;5063922;28;20088;-36
2022/08/27 00:09:32;;;;;;;4.70;2.30;;;17.90;99.00;;;;;;5064099;28;20063;-36
2022/08/27 00:11:58;;;;;;;3.20;1.80;;;17.90;99.10;;;;;;5064477;28;20028;-35
2022/08/27 00:14:26;;;;;;;5.13;2.13;;;17.90;99.10;;;;;;5063869;28;20211;-35
2022/08/27 00:16:52;;;;;;;4.55;2.20;;;17.80;99.20;;;;;;5064587;28;20028;-36
2022/08/27 00:19:18;;;;;;;4.10;1.60;;;17.80;99.30;;;;;;5064799;28;20422;-39
2022/08/27 00:21:44;;;;;;;3.00;1.77;;;17.80;99.30;;;;;;5063213;28;20033;-36
2022/08/27 00:24:11;;;;;;;2.70;1.58;;;17.80;99.40;;;;;;5064197;28;20078;-36
2022/08/27 00:26:37;;;;;;;2.72;1.75;;;17.70;99.40;;;;;;5063474;28;20029;-36
2022/08/27 00:29:03;;;;;;;2.17;1.73;;;17.70;99.40;;;;;;5062968;28;20024;-35
2022/08/27 00:31:28;;;;;;;3.33;1.73;;;17.60;99.40;;;;;;5063757;28;20037;-36
2022/08/27 00:33:54;;;;;;;2.47;1.70;;;17.60;99.50;;;;;;5063147;28;20049;-36
2022/08/27 00:36:20;;;;;;;3.83;1.90;;;17.60;99.60;;;;;;5062819;28;20063;-36
2022/08/27 00:38:45;;;;;;;3.45;1.88;;;17.60;99.70;;;;;;5062516;28;20535;-37
2022/08/27 00:41:12;;;;;;;3.17;1.80;;;17.50;99.70;;;;;;5063774;28;20097;-36
2022/08/27 00:43:52;;;;;;;5.20;1.98;;;17.50;99.80;;;;;;5063376;28;20130;-35
2022/08/27 00:46:34;;;;;;;2.70;1.80;;;17.50;99.80;;;;;;5064089;28;20387;-36
2022/08/27 00:49:20;;;;;;;3.38;1.70;;;17.50;99.90;;;;;;5063044;28;20037;-35
2022/08/27 00:51:57;;;;;;;2.15;1.60;;;17.40;99.90;;;;;;5063646;28;20033;-35
2022/08/27 00:54:25;;;;;;;5.00;1.83;;;17.40;99.90;;;;;;5063809;28;20040;-35
2022/08/27 00:56:51;;;;;;;2.80;1.75;;;17.40;99.90;;;;;;5062985;28;20033;-35
2022/08/27 00:59:17;;;;;;;3.03;1.70;;;17.40;99.90;;;;;;5063850;28;20028;-36
2022/08/27 01:04:31;;;;;;;2.60;1.58;;;17.40;99.90;;;;;;5067438;28;20036;-37
2022/08/27 01:06:58;;;;;;;2.83;1.70;;;17.40;99.90;;;;;;5067211;28;20032;-35
2022/08/27 01:09:25;;;;;;;2.20;1.42;;;17.40;99.80;;;;;;5066553;28;20547;-37
2022/08/27 01:11:51;;;;;;;2.38;1.60;;;17.40;99.80;;;;;;5067061;28;20024;-38
2022/08/27 01:14:18;;;;;;;1.63;1.17;;;17.40;99.80;;;;;;5067323;28;20035;-35
2022/08/27 01:16:49;;;;;;;2.53;1.60;;;17.50;99.80;;;;;;5066223;28;20020;-35
2022/08/27 01:19:39;;;;;;;3.40;1.73;;;17.50;99.80;;;;;;5067334;28;20033;-36
2022/08/27 01:22:17;;;;;;;2.72;1.50;;;17.50;99.80;;;;;;5056815;28;20532;-36
2022/08/27 01:24:46;;;;;;;2.03;1.67;;;17.50;99.80;;;;;;5066354;28;20020;-36
2022/08/27 01:27:17;;;;;;;2.10;1.45;;;17.50;99.90;;;;;;5067345;28;20039;-35
2022/08/27 01:29:44;;;;;;;4.35;1.70;;;17.50;99.70;;;;;;5066674;28;20425;-36
2022/08/27 01:32:15;;;;;;;4.13;1.92;;;17.50;99.70;;;;;;5066587;28;20082;-35
2022/08/27 01:34:41;;;;;;;3.23;1.80;;;17.50;99.70;;;;;;5066698;28;20044;-37
2022/08/27 01:37:07;;;;;;;3.22;1.40;;;17.60;99.70;;;;;;5066226;28;20316;-38
2022/08/27 01:39:34;;;;;;;4.15;1.60;;;17.60;99.70;;;;;;5065651;28;20115;-37
2022/08/27 01:42:06;;;;;;;2.50;1.50;;;17.60;99.70;;;;;;5066360;28;20056;-37
2022/08/27 01:45:09;;;;;;;1.92;1.30;;;17.60;99.70;;;;;;5066035;28;20039;-36
2022/08/27 01:47:35;;;;;;;3.70;1.80;;;17.60;99.70;;;;;;5066676;28;20033;-35
2022/08/27 01:50:05;;;;;;;2.97;1.50;;;17.50;99.70;;;;;;5066693;28;20016;-37
2022/08/27 01:52:30;;;;;;;3.58;2.10;;;17.50;99.70;;;;;;5064927;28;20045;-36
2022/08/27 01:54:56;;;;;;;2.55;1.40;;;17.50;99.80;;;;;;5066260;28;20039;-38
2022/08/27 01:57:22;;;;;;;2.45;1.50;;;17.50;99.80;;;;;;5066503;28;20020;-36
2022/08/27 01:59:48;;;;;;;2.55;1.95;;;17.50;99.80;;;;;;5065318;28;20025;-36
2022/08/27 02:02:16;;;;;;;1.90;1.60;;;17.50;99.80;;;;;;5066245;28;20055;-36
2022/08/27 02:04:42;;;;;;;2.65;1.70;;;17.50;99.90;;;;;;5065983;28;20448;-37
2022/08/27 02:07:08;;;;;;;4.72;1.75;;;17.50;99.90;;;;;;5064974;28;20495;-35
2022/08/27 02:09:34;;;;;;;4.15;1.95;;;17.40;99.90;;;;;;5066043;28;20028;-38
2022/08/27 02:12:00;;;;;;;4.28;1.98;;;17.40;99.90;;;;;;5065735;28;20109;-35
2022/08/27 02:14:27;;;;;;;5.40;2.17;;;17.40;99.90;;;;;;5065237;28;20032;-36
2022/08/27 02:16:53;;;;;;;2.47;1.70;;;17.30;99.90;;;;;;5065650;28;20025;-36
2022/08/27 02:19:20;;;;;;;3.45;1.80;;;17.30;99.90;;;;;;5066469;28;20063;-37
2022/08/27 02:21:46;;;;;;;3.08;1.88;;;17.30;99.90;;;;;;5065231;28;20025;-36
2022/08/27 02:24:12;;;;;;;2.75;1.52;;;17.20;99.90;;;;;;5066306;28;20028;-36
2022/08/27 02:26:38;;;;;;;5.22;3.72;;;17.30;99.90;;;;;;5064933;28;20042;-35
2022/08/27 02:29:04;;;;;;;7.00;2.30;;;17.30;99.90;;;;;;5065386;28;20449;-36
2022/08/27 02:31:30;;;;;;;6.18;2.08;;;17.30;99.90;;;;;;5065290;28;20131;-37
2022/08/27 02:33:56;;;;;;;4.00;1.83;;;17.30;99.90;;;;;;5064394;28;20032;-37
2022/08/27 02:36:22;;;;;;;3.03;1.80;;;17.30;99.90;;;;;;5065747;28;20502;-37
2022/08/27 02:38:48;;;;;;;3.28;1.80;;;17.30;99.90;;;;;;5064683;28;20020;-36
2022/08/27 02:41:15;;;;;;;1.90;1.38;;;17.30;99.90;;;;;;5064839;28;20584;-36
2022/08/27 02:43:41;;;;;;;3.75;1.63;;;17.30;99.90;;;;;;5064517;28;20056;-38
2022/08/27 02:46:06;;;;;;;2.45;1.60;;;17.30;99.90;;;;;;5065406;28;20100;-36
2022/08/27 02:48:36;;;;;;;2.15;1.50;;;17.30;99.90;;;;;;5064726;28;20033;-35
2022/08/27 02:51:04;;;;;;;4.03;1.95;;;17.30;99.90;;;;;;5065119;28;20487;-36
2022/08/27 02:53:31;;;;;;;3.17;1.48;;;17.30;99.90;;;;;;5064161;28;20424;-36
2022/08/27 02:55:57;;;;;;;2.88;1.52;;;17.30;99.90;;;;;;5064371;28;20218;-36
2022/08/27 02:58:22;;;;;;;3.53;1.80;;;17.30;99.90;;;;;;5064484;28;20107;-37
2022/08/27 03:00:48;;;;;;;2.40;1.65;;;17.30;99.90;;;;;;5065129;28;20605;-36
2022/08/27 03:03:14;;;;;;;3.10;1.50;;;17.30;99.90;;;;;;5064292;28;20555;-38
2022/08/27 03:05:39;;;;;;;2.63;1.63;;;17.30;99.90;;;;;;5064383;28;20028;-36
2022/08/27 03:08:06;;;;;;;2.42;1.70;;;17.30;99.90;;;;;;5064947;28;20099;-35
2022/08/27 03:10:32;;;;;;;2.80;1.83;;;17.30;99.90;;;;;;5063902;28;20071;-37
2022/08/27 03:12:57;;;;;;;3.13;1.90;;;17.30;99.90;;;;;;5064179;28;20111;-36
2022/08/27 03:15:23;;;;;;;4.70;2.05;;;17.20;99.90;;;;;;5065297;28;20028;-35
2022/08/27 03:20:39;;;;;;;6.68;2.08;;;17.20;99.90;;;;;;5062698;28;20082;-36
2022/08/27 03:23:04;;;;;;;5.75;1.98;;;17.20;99.90;;;;;;5063750;28;20016;-36
2022/08/27 03:25:30;;;;;;;3.58;2.13;;;17.20;99.90;;;;;;5064424;28;20035;-36
2022/08/27 03:27:55;;;;;;;3.28;1.83;;;17.10;99.90;;;;;;5064794;28;20096;-36
2022/08/27 03:30:22;;;;;;;4.50;2.13;;;17.10;99.90;;;;;;5064154;28;20444;-37
2022/08/27 03:32:48;;;;;;;3.78;1.70;;;17.10;99.90;;;;;;5063971;28;20039;-36
2022/08/27 03:35:14;;;;;;;2.67;2.00;;;17.10;99.90;;;;;;5064345;28;20032;-37
2022/08/27 03:37:40;;;;;;;3.17;2.00;;;17.00;99.90;;;;;;5063824;28;20120;-36
2022/08/27 03:40:06;;;;;;;3.78;2.10;;;17.00;99.90;;;;;;5064505;28;20116;-36
2022/08/27 03:42:33;;;;;;;3.83;2.15;;;17.00;99.90;;;;;;5064556;28;20488;-36
2022/08/27 03:44:59;;;;;;;4.22;1.95;;;17.00;99.90;;;;;;5064006;28;20020;-37
2022/08/27 03:47:24;;;;;;;5.57;2.20;;;16.90;99.90;;;;;;5064278;28;20039;-37
2022/08/27 03:49:50;;;;;;;3.80;1.98;;;16.90;99.90;;;;;;5064891;28;20105;-37
2022/08/27 03:52:15;;;;;;;5.90;2.17;;;16.80;99.90;;;;;;5063148;28;20032;-35
2022/08/27 03:54:41;;;;;;;2.80;1.70;;;16.80;99.90;;;;;;5063471;28;20025;-36
2022/08/27 03:57:07;;;;;;;2.97;1.65;;;16.80;99.90;;;;;;5064406;28;20380;-36
2022/08/27 03:59:33;;;;;;;3.58;1.92;;;16.70;99.90;;;;;;5062887;28;20369;-36
2022/08/27 04:01:59;;;;;;;2.78;1.90;;;16.70;99.90;;;;;;5063952;28;20021;-36
2022/08/27 04:04:25;;;;;;;2.67;1.90;;;16.70;99.90;;;;;;5064199;28;20633;-35
2022/08/27 04:06:50;;;;;;;2.55;1.80;;;16.70;99.90;;;;;;5063234;28;20145;-36
2022/08/27 04:09:16;;;;;;;4.00;2.13;;;16.60;99.90;;;;;;5064642;28;20169;-37
2022/08/27 04:11:42;;;;;;;4.10;1.88;;;16.60;99.90;;;;;;5063865;28;20032;-36
2022/08/27 04:14:08;;;;;;;2.78;1.60;;;16.60;99.90;;;;;;5063709;28;20040;-35
2022/08/27 04:16:35;;;;;;;5.50;2.65;;;16.60;99.90;;;;;;5063952;28;20020;-36
2022/08/27 04:19:02;;;;;;;4.07;1.63;;;16.60;99.90;;;;;;5062854;28;20565;-37
2022/08/27 04:21:28;;;;;;;3.00;1.90;;;16.60;99.90;;;;;;5063744;28;20392;-36
2022/08/27 04:23:55;;;;;;;4.75;1.95;;;16.60;99.90;;;;;;5063459;28;20028;-36
2022/08/27 04:26:21;;;;;;;2.95;1.70;;;16.60;99.90;;;;;;5063240;28;20024;-36
2022/08/27 04:28:46;;;;;;;3.40;2.20;;;16.50;99.90;;;;;;5063636;28;20086;-38
2022/08/27 04:31:13;;;;;;;2.72;1.80;;;16.60;99.90;;;;;;5063866;28;20017;-35
2022/08/27 04:33:38;;;;;;;4.15;1.80;;;16.60;99.90;;;;;;5062575;28;20395;-36
2022/08/27 04:36:08;;;;;;;6.93;2.00;;;16.60;99.90;;;;;;5065290;28;20069;-37
2022/08/27 04:38:35;;;;;;;4.43;2.13;;;16.60;99.90;;;;;;5067681;28;20037;-36
2022/08/27 04:41:25;;;;;;;3.10;2.00;;;16.60;99.90;;;;;;5066671;28;20242;-37
2022/08/27 04:43:56;;;;;;;3.03;1.90;;;16.50;99.90;;;;;;5058584;28;20666;-36
2022/08/27 04:46:25;;;;;;;2.30;1.90;;;16.50;99.90;;;;;;5067799;28;20531;-37
2022/08/27 04:48:51;;;;;;;2.22;1.85;;;16.40;99.90;;;;;;5067410;28;20028;-36
2022/08/27 04:51:19;;;;;;;3.38;2.08;;;16.40;99.90;;;;;;5067445;28;20028;-36
2022/08/27 04:53:44;;;;;;;4.00;2.33;;;16.40;99.90;;;;;;5066581;28;20091;-36
2022/08/27 04:56:14;;;;;;;2.95;1.80;;;16.30;99.90;;;;;;5066843;28;20055;-36
2022/08/27 04:58:39;;;;;;;3.28;1.80;;;16.30;99.90;;;;;;5063624;28;20113;-36
2022/08/27 05:01:06;;;;;;;5.25;2.22;;;16.30;99.90;;;;;;5067151;28;20051;-35
2022/08/27 05:03:32;;;;;;;4.50;2.15;;;16.30;99.90;;;;;;5066261;28;20036;-36
2022/08/27 05:06:01;;;;;;;4.93;2.17;;;16.20;99.90;;;;;;5066769;28;20744;-36
2022/08/27 05:08:26;;;;;;;4.93;2.72;;;16.20;99.90;;;;;;5065716;28;20059;-37
2022/08/27 05:10:52;;;;;;;3.20;2.25;;;16.20;99.90;;;;;;5067289;28;20490;-38
2022/08/27 05:13:23;;;;;;;3.90;2.35;;;16.10;99.90;;;;;;5067499;28;20060;-36
2022/08/27 05:15:56;;;;;;;2.60;1.90;;;16.10;99.90;;;;;;5066067;28;20332;-36
2022/08/27 05:18:21;;;;;;;6.30;2.08;;;16.10;99.90;;;;;;5066883;28;20037;-36
2022/08/27 05:20:48;;;;;;;3.00;2.00;;;16.10;99.90;;;;;;5066778;28;20024;-38
2022/08/27 05:23:16;;;;;;;5.57;2.08;;;16.00;99.90;;;;;;5066600;28;20173;-36
2022/08/27 05:25:45;;;;;;;4.95;2.42;;;16.00;99.90;;;;;;5066754;28;20024;-36
2022/08/27 05:28:12;;;;;;;3.40;2.28;;;16.00;99.90;;;;;;5066778;28;20017;-37
2022/08/27 05:30:43;;;;;;;6.72;2.30;;;15.90;99.90;;;;;;5066153;28;20082;-37
2022/08/27 05:33:10;;;;;;;5.25;2.08;;;16.00;99.90;;;;;;5066845;28;20078;-35
2022/08/27 05:35:40;;;;;;;3.63;2.22;;;16.00;99.90;;;;;;5066898;28;20021;-36
2022/08/27 05:38:06;;;;;;;4.45;2.10;;;16.00;99.90;;;;;;5065907;28;20027;-37
2022/08/27 05:40:32;;;;;;;5.35;2.35;;;16.10;99.90;;;;;;5066976;28;20033;-35
2022/08/27 05:42:58;;;;;;;5.00;1.90;;;16.10;99.90;;;;;;5066244;28;20435;-35
2022/08/27 05:45:23;;;;;;;2.60;2.03;;;16.10;99.90;;;;;;5065915;28;20506;-36
2022/08/27 05:47:49;;;;;;;3.10;2.00;;;16.20;99.90;;;;;;5065727;28;20616;-37
2022/08/27 05:50:16;;;;;;;2.83;2.00;;;16.20;99.90;;;;;;5066619;28;20087;-36
2022/08/27 05:52:42;;;;;;;2.88;2.03;;;16.30;99.90;;;;;;5065601;28;20497;-35
2022/08/27 05:55:08;;;;;;;2.40;1.67;;;16.30;99.90;;;;;;5065747;28;20086;-36
2022/08/27 05:57:33;;;;;;;2.95;2.03;;;16.40;99.90;;;;;;5065355;28;20131;-36
2022/08/27 06:02:44;;;;;;;3.78;2.10;;;16.50;99.90;;;;;;5046167;28;20102;-35
2022/08/27 06:05:10;;;;;;;3.90;2.40;;;16.50;99.90;;;;;;5061879;28;20515;-35
2022/08/27 06:07:35;;;;;;;3.58;2.20;;;16.50;99.90;;;;;;5065712;28;20459;-35
2022/08/27 06:10:04;;;;;;;3.17;2.40;;;16.60;99.90;;;;;;5065535;28;20472;-37
2022/08/27 06:12:29;;;;;;;3.63;2.55;;;16.60;99.90;;;;;;5065279;28;20105;-36
2022/08/27 06:14:55;;;;;;;4.10;2.15;;;16.60;99.90;;;;;;5065718;28;20074;-35
2022/08/27 06:17:21;;;;;;;4.28;2.40;;;16.70;99.90;;;;;;5066173;28;20031;-38
2022/08/27 06:19:46;;;;;;;2.75;1.90;;;16.70;99.90;;;;;;5064101;28;20032;-35
2022/08/27 06:22:12;;;;;;;4.03;2.50;;;16.70;99.90;;;;;;5065553;28;20490;-36
2022/08/27 06:24:42;;;;;;;6.35;2.83;;;16.80;99.90;;;;;;5062411;28;20020;-36
2022/08/27 06:27:10;;;;;;;3.30;2.17;;;16.80;99.90;;;;;;5064716;28;20021;-36
2022/08/27 06:29:36;;;;;;;3.00;2.25;;;16.80;99.90;;;;;;5064793;28;20027;-35
2022/08/27 06:32:02;;;;;;;3.65;2.30;;;16.90;99.90;;;;;;5065049;28;20016;-36
2022/08/27 06:34:27;;;;;;;4.60;2.58;;;16.90;99.90;;;;;;5063646;28;20067;-36
2022/08/27 06:36:53;;;;;;;3.15;2.00;;;16.90;99.90;;;;;;5064617;28;20032;-37
2022/08/27 06:39:19;;;;;;;4.40;2.20;;;17.00;99.90;;;;;;5065443;28;20024;-37
2022/08/27 06:41:45;;;;;;;4.22;2.20;;;17.00;99.90;;;;;;5063526;28;20519;-36
2022/08/27 06:44:13;;;;;;;4.78;1.98;;;17.00;99.90;;;;;;5064620;28;20028;-35
2022/08/27 06:46:40;;;;;;;3.95;2.20;;;17.00;99.90;;;;;;5063813;28;20020;-38
2022/08/27 06:49:06;;;;;;;1.95;1.60;;;17.10;99.90;;;;;;5045007;28;20082;-36
2022/08/27 06:51:34;;;;;;;2.47;1.92;;;17.20;99.90;;;;;;5058160;28;20017;-37
2022/08/27 06:54:05;;;;;;;3.95;2.00;;;17.20;99.90;;;;;;5062925;28;20048;-36
2022/08/27 06:56:31;;;;;;;3.63;1.77;;;17.20;99.90;;;;;;5064413;28;20757;-37
2022/08/27 06:59:02;;;;;;;2.40;1.80;;;17.30;99.90;;;;;;5063709;28;20032;-36
2022/08/27 07:01:31;;;;;;;2.65;1.60;;;17.30;99.90;;;;;;5063536;28;20078;-36
2022/08/27 07:03:59;;;;;;;2.80;1.50;;;17.40;99.90;;;;;;5064467;28;20025;-39
2022/08/27 07:06:28;;;;;;;2.85;1.70;;;17.40;99.90;;;;;;5064137;28;20048;-36
2022/08/27 07:08:53;;;;;;;3.67;2.00;;;17.50;99.90;;;;;;5062791;28;20407;-37
2022/08/27 07:11:19;;;;;;;2.95;1.80;;;17.50;99.90;;;;;;5064793;28;20017;-37
2022/08/27 07:13:47;;;;;;;3.97;1.80;;;17.60;99.90;;;;;;5064304;28;20526;-36
2022/08/27 07:16:15;;;;;;;2.28;1.48;;;17.70;99.90;;;;;;5064268;28;20113;-37
2022/08/27 07:18:41;;;;;;;2.75;1.50;;;17.70;99.90;;;;;;5065084;28;20016;-37
2022/08/27 07:21:07;;;;;;;3.03;1.70;;;17.70;99.90;;;;;;5064460;28;20410;-36
2022/08/27 07:23:34;;;;;;;3.22;1.55;;;17.80;99.90;;;;;;5064273;28;20032;-36
2022/08/27 07:26:00;;;;;;;2.88;1.45;;;17.90;99.80;;;;;;5065188;28;20016;-35
2022/08/27 07:28:26;;;;;;;6.43;2.63;;;17.90;99.80;;;;;;5064046;28;20024;-37
2022/08/27 07:30:52;;;;;;;3.80;1.67;;;18.00;99.50;;;;;;5064140;28;20024;-37
2022/08/27 07:33:18;;;;;;;1.77;1.33;;;18.10;99.50;;;;;;5064312;28;20045;-37
2022/08/27 07:35:45;;;;;;;3.33;1.65;;;18.10;99.30;;;;;;5064120;28;20434;-36
2022/08/27 07:38:11;;;;;;;4.57;1.63;;;18.20;99.10;;;;;;5064203;28;20035;-36
2022/08/27 07:40:37;;;;;;;2.10;1.35;;;18.20;99.00;;;;;;5064333;28;20286;-36
2022/08/27 07:45:54;;;;;;;2.47;1.45;;;18.40;98.90;;;;;;5044101;28;20505;-36
2022/08/27 07:48:22;;;;;;;1.98;1.30;;;18.40;98.70;;;;;;5057831;28;20901;-36
2022/08/27 07:50:48;;;;;;;2.38;1.42;;;18.50;98.50;;;;;;5063329;28;20369;-36
2022/08/27 07:53:13;;;;;;;4.85;1.70;;;18.60;98.50;;;;;;5063966;28;20640;-36
2022/08/27 07:55:39;;;;;;;1.85;1.20;;;18.60;98.20;;;;;;5064544;28;20028;-36
2022/08/27 07:58:05;;;;;;;3.25;1.13;;;18.80;98.20;;;;;;5063503;28;20536;-35
2022/08/27 08:00:31;;;;;;;3.05;1.40;;;19.00;98.10;;;;;;5064271;28;20111;-36
2022/08/27 08:02:58;;;;;;;2.10;1.00;;;19.10;97.70;;;;;;5063769;28;20480;-36
2022/08/27 08:05:24;;;;;;;3.05;1.02;;;19.20;97.60;;;;;;5063070;28;20024;-36
2022/08/27 08:07:50;;;;;;;3.03;1.00;;;19.40;97.50;;;;;;5064091;28;20036;-36
2022/08/27 08:10:18;;;;;;;3.08;1.20;;;19.50;96.80;;;;;;5066513;28;20024;-36
2022/08/27 08:12:44;;;;;;;2.40;1.13;;;19.50;96.10;;;;;;5066873;28;20024;-37
2022/08/27 08:15:10;;;;;;;3.03;1.10;;;19.50;96.00;;;;;;5068254;28;20036;-37
2022/08/27 08:17:37;;;;;;;2.10;1.10;;;19.60;96.00;;;;;;5067314;28;20067;-37
2022/08/27 08:20:05;;;;;;;1.85;1.10;;;19.70;96.00;;;;;;5066908;28;20044;-37
2022/08/27 08:22:30;;;;;;;1.73;0.90;;;19.80;95.60;;;;;;5067608;28;20028;-36
2022/08/27 08:24:56;;;;;;;1.45;0.90;;;19.80;95.70;;;;;;5067679;28;20021;-38
2022/08/27 08:27:22;;;;;;;2.33;1.17;;;19.90;95.70;;;;;;5047432;28;20604;-37
2022/08/27 08:29:48;;;;;;;2.13;1.10;;;19.90;95.60;;;;;;5061323;28;20067;-37
2022/08/27 08:32:14;;;;;;;2.97;1.20;;;20.00;95.40;;;;;;5067712;28;20036;-35
2022/08/27 08:34:40;;;;;;;2.72;1.02;;;20.10;95.30;;;;;;5067026;28;20498;-36
2022/08/27 08:37:06;;;;;;;2.70;1.10;;;20.10;94.90;;;;;;5067669;28;20029;-37
2022/08/27 08:39:32;;;;;;;3.65;1.48;;;20.10;94.40;;;;;;5067168;28;20052;-38
2022/08/27 08:42:00;;;;;;;2.17;1.05;;;20.10;94.00;;;;;;5067436;28;20028;-38
2022/08/27 08:44:41;;;;;;;2.17;1.10;;;20.00;94.20;;;;;;5067406;28;20074;-38
2022/08/27 08:47:10;;;;;;;4.65;1.58;;;20.00;94.00;;;;;;5066797;28;20407;-39
2022/08/27 08:49:39;;;;;;;2.72;1.00;;;19.90;94.00;;;;;;5067838;28;20026;-38
2022/08/27 08:52:34;;;;;;;2.92;1.05;;;19.90;94.20;;;;;;5067191;28;20441;-36
2022/08/27 08:55:10;;;;;;;1.77;0.98;;;19.80;94.30;;;;;;5061124;28;20076;-37
2022/08/27 08:57:48;;;;;;;2.67;1.08;;;19.80;94.30;;;;;;5067216;28;20021;-37
2022/08/27 09:00:18;;;;;;;1.98;0.93;;;19.80;94.30;;;;;;5067510;28;20387;-37
2022/08/27 09:02:50;;;;;;;1.15;0.98;;;19.90;94.30;;;;;;5066268;28;20123;-36
2022/08/27 09:05:16;;;;;;;2.92;1.20;;;20.00;94.20;;;;;;5067261;28;20541;-38
2022/08/27 09:08:01;;;;;;;2.78;0.90;;;20.20;94.00;;;;;;5066788;28;20024;-37
2022/08/27 09:11:11;;;;;;;2.83;1.27;;;20.20;93.50;;;;;;5065799;28;20090;-37
2022/08/27 09:13:41;;;;;;;1.73;0.88;;;20.20;93.40;;;;;;5066842;28;20072;-36
2022/08/27 09:16:07;;;;;;;2.35;1.02;;;20.30;93.30;;;;;;5066629;28;20024;-37
2022/08/27 09:18:39;;;;;;;2.60;1.00;;;20.30;93.20;;;;;;5067109;28;20031;-36
2022/08/27 09:21:40;;;;;;;3.00;1.27;;;20.30;93.30;;;;;;5065995;28;20111;-35
2022/08/27 09:24:06;;;;;;;2.83;0.88;;;20.20;93.30;;;;;;5067138;28;20041;-36
2022/08/27 09:26:35;;;;;;;3.70;1.13;;;20.20;93.40;;;;;;5066747;28;20032;-36
2022/08/27 09:29:19;;;;;;;2.20;1.00;;;20.40;93.40;;;;;;5065944;28;20021;-37
2022/08/27 09:31:56;;;;;;;1.05;0.73;;;20.50;93.30;;;;;;5066021;28;20028;-36
2022/08/27 09:34:24;;;;;;;1.15;0.82;;;20.60;93.20;;;;;;5066949;28;20562;-37
2022/08/27 09:36:54;;;;;;;1.02;0.88;;;20.80;93.00;;;;;;5065498;28;20403;-37
2022/08/27 09:39:48;;;;;;;2.90;0.90;;;21.00;92.40;;;;;;5067200;28;20032;-38
2022/08/27 09:42:43;;;;;;;4.20;1.30;;;21.20;92.50;;;;;;5060835;28;20043;-36
2022/08/27 09:45:12;;;;;;;3.10;1.13;;;21.40;91.50;;;;;;5063092;28;20028;-36
2022/08/27 09:47:46;;;;;;;1.33;0.70;;;21.50;91.60;;;;;;5065707;28;20028;-35
2022/08/27 09:50:14;;;;;;;3.45;1.00;;;21.60;91.70;;;;;;5046204;28;20033;-35
2022/08/27 09:52:52;;;;;;;2.15;1.00;;;21.60;91.60;;;;;;5061412;28;20048;-36
2022/08/27 09:55:27;;;;;;;2.95;1.25;;;21.70;91.30;;;;;;5047077;28;20499;-36
2022/08/27 09:57:53;;;;;;;3.15;1.30;;;21.70;91.20;;;;;;5061045;28;20028;-36
2022/08/27 10:00:37;;;;;;;2.55;0.95;;;21.70;90.80;;;;;;5066714;28;20132;-37
2022/08/27 10:03:04;;;;;;;1.92;1.00;;;21.60;90.90;;;;;;5066184;28;20495;-36
2022/08/27 10:05:36;;;;;;;4.47;1.13;;;21.60;90.40;;;;;;5065610;28;20111;-36
2022/08/27 10:08:09;;;;;;;1.33;0.88;;;21.60;90.70;;;;;;5066031;28;20055;-38
2022/08/27 10:10:56;;;;;;;2.03;1.10;;;21.70;90.90;;;;;;5066137;28;20074;-37
2022/08/27 10:13:30;;;;;;;3.13;1.08;;;21.80;90.80;;;;;;5065959;28;20048;-35
2022/08/27 10:16:38;;;;;;;3.15;1.30;;;21.80;90.40;;;;;;5066180;28;20502;-37
2022/08/27 10:19:22;;;;;;;3.10;1.40;;;21.90;90.30;;;;;;5057822;28;20403;-38
2022/08/27 10:22:02;;;;;;;2.65;1.13;;;21.90;90.30;;;;;;5065788;28;20039;-37
2022/08/27 10:24:34;;;;;;;4.22;1.35;;;22.00;90.30;;;;;;5065368;28;20082;-36
2022/08/27 10:27:32;;;;;;;3.65;1.10;;;22.00;90.40;;;;;;5065367;28;20024;-37
2022/08/27 10:30:15;;;;;;;1.63;1.00;;;22.10;90.20;;;;;;5065574;28;20075;-37
2022/08/27 10:32:46;;;;;;;3.10;1.40;;;22.20;90.30;;;;;;5064388;28;20108;-37
2022/08/27 10:35:36;;;;;;;2.60;1.20;;;22.20;90.20;;;;;;5066223;28;20112;-36
2022/08/27 10:38:32;;;;;;;3.00;1.15;;;22.20;90.20;;;;;;5065338;28;20017;-35
2022/08/27 10:41:01;;;;;;;4.72;1.00;;;22.20;90.30;;;;;;5057830;28;20036;-36
2022/08/27 10:44:35;;;;;;;2.63;1.05;;;22.10;90.40;;;;;;5065330;28;20040;-36
2022/08/27 10:47:14;;;;;;;3.03;1.08;;;22.20;90.40;;;;;;5041031;28;20286;-37
2022/08/27 10:50:02;;;;;;;2.83;1.00;;;22.30;90.00;;;;;;5064898;28;20039;-36
2022/08/27 10:52:47;;;;;;;1.75;0.93;;;22.40;90.00;;;;;;5045219;28;20041;-37
2022/08/27 10:55:26;;;;;;;2.22;0.80;;;22.50;89.40;;;;;;5065163;28;20068;-36
2022/08/27 10:58:07;;;;;;;2.30;0.80;;;22.50;88.90;;;;;;5066095;28;20098;-39
2022/08/27 11:00:51;;;;;;;2.22;1.00;;;22.50;88.90;;;;;;5063861;28;20039;-37
2022/08/27 11:03:21;;;;;;;2.55;0.90;;;22.50;88.90;;;;;;5065812;28;20028;-38
2022/08/27 11:05:49;;;;;;;1.08;0.80;;;22.50;88.90;;;;;;5063009;28;20028;-38
2022/08/27 11:08:39;;;;;;;1.65;0.80;;;22.50;88.90;;;;;;5063895;28;20480;-36
2022/08/27 11:11:11;;;;;;;1.73;0.90;;;22.60;88.80;;;;;;5061155;28;20024;-40
2022/08/27 11:13:40;;;;;;;;;;;22.50;88.80;;;;;;5064750;28;20116;-37
2022/08/27 11:16:10;;;;;;;1.55;0.95;;;22.50;88.00;;;;;;5063934;28;19971;-36
2022/08/27 11:18:48;;;;;;;3.97;1.35;;;22.50;87.70;;;;;;5065272;28;20476;-35
2022/08/27 11:21:48;;;;;;;1.95;1.00;;;22.50;88.00;;;;;;5064142;28;20484;-36
2022/08/27 11:24:28;;;;;;;2.10;1.00;;;22.50;87.80;;;;;;5064791;28;20037;-35
2022/08/27 11:27:00;;;;;;;3.58;1.10;;;22.60;86.80;;;;;;5064899;28;20023;-37
2022/08/27 11:29:37;;;;;;;2.63;0.90;;;22.60;86.10;;;;;;5064410;28;20078;-36
2022/08/27 11:32:24;;;;;;;2.20;0.90;;;22.60;85.70;;;;;;5065094;28;20024;-35
2022/08/27 11:35:00;;;;;;;1.10;0.70;;;22.60;85.70;;;;;;5064241;28;20032;-35
2022/08/27 11:37:48;;;;;;;0.70;0.70;;;22.60;86.00;;;;;;5053318;28;20032;-37
2022/08/27 11:40:43;;;;;;;2.13;1.15;;;22.80;86.30;;;;;;5064809;28;20035;-38
2022/08/27 11:43:22;;;;;;;3.38;1.15;;;22.90;85.50;;;;;;5063941;28;20490;-35
2022/08/27 11:46:08;;;;;;;2.95;1.02;;;23.10;85.10;;;;;;5063538;28;20610;-37
2022/08/27 11:48:40;;;;;;;1.58;1.00;;;23.00;85.40;;;;;;5064629;28;20661;-36
2022/08/27 11:51:13;;;;;;;4.70;1.35;;;23.10;85.60;;;;;;5064202;28;20074;-37
2022/08/27 11:53:52;;;;;;;4.40;1.40;;;23.10;85.70;;;;;;5063943;28;20577;-36
2022/08/27 11:56:40;;;;;;;1.83;1.00;;;23.10;85.60;;;;;;5063995;28;20052;-37
2022/08/27 11:59:22;;;;;;;2.10;1.20;;;23.10;86.00;;;;;;5064988;28;20025;-35
2022/08/27 12:01:51;;;;;;;2.05;1.10;;;23.10;86.10;;;;;;5064038;28;20025;-36
2022/08/27 12:04:33;;;;;;;2.95;1.20;;;23.00;85.70;;;;;;5064411;28;20059;-37
2022/08/27 12:07:16;;;;;;;3.15;1.10;;;23.00;86.10;;;;;;5064382;28;20021;-36
2022/08/27 12:09:50;;;;;;;1.80;1.17;;;23.00;86.40;;;;;;5064596;28;20361;-39
2022/08/27 12:12:42;;;;;;;4.22;1.40;;;23.00;86.20;;;;;;5063285;28;20376;-36
2022/08/27 12:15:16;;;;;;;2.10;1.05;;;23.10;85.90;;;;;;5044019;28;20040;-36
2022/08/27 12:17:58;;;;;;;2.35;1.35;;;23.20;86.00;;;;;;5059748;28;20458;-36
2022/08/27 12:20:41;;;;;;;2.60;0.90;;;23.30;85.60;;;;;;5044650;28;20389;-34
2022/08/27 12:23:38;;;;;;;3.47;1.25;;;23.30;85.40;;;;;;5062600;28;20107;-36
2022/08/27 12:26:32;;;;;;;1.90;1.00;;;23.40;84.70;;;;;;5063103;28;20054;-35
2022/08/27 12:29:39;;;;;;;3.60;1.35;;;23.30;85.10;;;;;;5063530;28;20050;-35
2022/08/27 12:32:32;;;;;;;3.80;1.27;;;23.30;85.20;;;;;;5063383;28;20034;-36
2022/08/27 12:35:22;;;;;;;2.20;1.02;;;23.30;84.90;;;;;;5064068;28;20060;-37
2022/08/27 12:38:05;;;;;;;2.22;1.10;;;23.20;84.80;;;;;;5063380;28;20017;-38
2022/08/27 12:40:40;;;;;;;3.03;1.23;;;23.20;84.50;;;;;;5063022;28;20035;-36
2022/08/27 12:43:11;;;;;;;1.90;1.00;;;23.10;85.20;;;;;;5063958;28;20060;-37
2022/08/27 12:46:00;;;;;;;2.60;1.30;;;23.10;84.80;;;;;;5063224;28;20132;-37
2022/08/27 12:48:32;;;;;;;2.55;1.02;;;23.20;85.00;;;;;;5064002;28;20020;-35
2022/08/27 12:51:05;;;;;;;1.88;1.00;;;23.30;84.60;;;;;;5063825;28;20430;-35
2022/08/27 12:53:41;;;;;;;3.10;0.90;;;23.30;84.20;;;;;;5062932;28;20048;-37
2022/08/27 12:56:22;;;;;;;1.92;0.98;;;23.30;84.30;;;;;;5062410;28;20236;-36
2022/08/27 12:59:08;;;;;;;2.13;0.88;;;23.20;84.40;;;;;;5065360;28;20036;-37
2022/08/27 13:01:55;;;;;;;2.90;0.90;;;23.20;84.50;;;;;;5045302;28;20021;-35
2022/08/27 13:04:24;;;;;;;1.70;0.80;;;23.30;84.70;;;;;;5062658;28;20161;-36
2022/08/27 13:06:50;;;;;;;2.40;1.00;;;23.40;84.80;;;;;;5064600;28;20033;-36
2022/08/27 13:09:35;;;;;;;2.47;1.05;;;23.40;84.60;;;;;;5067171;28;20102;-36
2022/08/27 13:12:04;;;;;;;2.95;0.90;;;23.50;84.60;;;;;;5047845;28;20031;-36
2022/08/27 13:14:38;;;;;;;3.40;1.08;;;23.50;85.00;;;;;;5061754;28;20505;-35
2022/08/27 13:17:13;;;;;;;1.75;0.90;;;23.50;84.30;;;;;;5067310;28;20484;-36
2022/08/27 13:19:51;;;;;;;2.13;1.10;;;23.50;83.70;;;;;;5067822;28;20032;-35
2022/08/27 13:22:27;;;;;;;2.53;1.08;;;23.50;83.40;;;;;;5047665;28;20062;-35